Time;durP1;ratioP1;P1;durP2;ratioP2;P2;SDS_P1;SDS_P2;PMS_P1;PMS_P2;Temp;Humidity;BMP_temperature;BMP_pressure;BME280_temperature;BME280_humidity;BME280_pressure;Samples;Min_cycle;Max_cycle;Signal;HPM_P1;HPM_P2
2021/08/18 00:08:56;;;;;;;3.53;1.23;;;15.50;99.90;;;;;;20284545;28;20351;-82
2021/08/18 00:18:57;;;;;;;2.13;0.60;;;15.50;99.90;;;;;;20344797;28;20040;-82
2021/08/18 00:28:58;;;;;;;4.32;1.40;;;15.50;99.90;;;;;;20367899;28;20049;-80
2021/08/18 00:38:59;;;;;;;4.22;1.08;;;15.50;99.90;;;;;;20351789;28;20058;-81
2021/08/18 00:49:00;;;;;;;1.52;0.68;;;15.50;99.90;;;;;;20405535;28;20051;-81
2021/08/18 00:59:03;;;;;;;7.25;0.60;;;15.40;99.90;;;;;;20411688;28;20040;-82
2021/08/18 01:09:04;;;;;;;1.75;0.50;;;15.30;99.90;;;;;;20418753;28;20778;-82
2021/08/18 01:19:06;;;;;;;2.35;0.65;;;15.30;99.90;;;;;;20370134;28;20170;-81
2021/08/18 01:29:07;;;;;;;1.33;0.43;;;15.30;99.90;;;;;;20340804;28;20044;-81
2021/08/18 01:39:09;;;;;;;2.55;1.00;;;15.30;99.90;;;;;;20376682;28;20048;-81
2021/08/18 01:49:10;;;;;;;2.33;0.63;;;15.30;99.90;;;;;;20400136;28;20150;-81
2021/08/18 01:59:11;;;;;;;2.63;0.50;;;15.30;99.90;;;;;;20393974;28;20032;-82
2021/08/18 02:09:12;;;;;;;3.47;1.73;;;15.20;99.90;;;;;;20438639;28;20055;-81
2021/08/18 02:19:13;;;;;;;2.40;0.90;;;15.20;99.90;;;;;;20447756;28;20027;-81
2021/08/18 02:29:14;;;;;;;2.63;0.98;;;15.20;99.90;;;;;;20429018;28;20169;-80
2021/08/18 02:39:15;;;;;;;2.42;0.73;;;15.20;99.90;;;;;;20426598;28;20142;-81
2021/08/18 02:49:18;;;;;;;1.88;0.65;;;15.30;99.90;;;;;;20449750;28;20039;-81
2021/08/18 02:59:20;;;;;;;3.63;0.77;;;15.30;99.90;;;;;;20490878;28;20050;-81
2021/08/18 03:09:22;;;;;;;2.83;0.70;;;15.30;99.90;;;;;;20403810;28;20424;-81
2021/08/18 03:19:23;;;;;;;2.10;0.80;;;15.40;99.90;;;;;;20445638;28;20502;-81
2021/08/18 03:29:24;;;;;;;2.42;1.40;;;15.40;99.90;;;;;;20425193;28;20050;-80
2021/08/18 03:39:25;;;;;;;2.45;1.00;;;15.40;99.90;;;;;;20398761;28;20045;-81
2021/08/18 03:49:26;;;;;;;4.45;0.88;;;15.40;99.90;;;;;;20355350;28;20282;-80
2021/08/18 03:59:27;;;;;;;3.70;0.93;;;15.40;99.90;;;;;;20330976;28;20432;-81
2021/08/18 04:09:28;;;;;;;2.10;0.55;;;15.40;99.90;;;;;;20275474;28;20040;-80
2021/08/18 04:19:29;;;;;;;3.17;1.27;;;15.40;99.90;;;;;;20387905;28;20038;-81
2021/08/18 04:29:30;;;;;;;3.03;0.50;;;15.20;99.90;;;;;;20342576;28;20056;-80
2021/08/18 04:39:31;;;;;;;3.20;1.08;;;15.20;99.90;;;;;;20407420;28;20057;-81
2021/08/18 04:49:33;;;;;;;1.25;0.40;;;15.30;99.90;;;;;;20373983;28;20550;-81
2021/08/18 04:59:34;;;;;;;3.10;0.60;;;15.20;99.90;;;;;;20314946;28;20047;-80
2021/08/18 05:09:35;;;;;;;2.38;1.33;;;15.10;99.90;;;;;;20373400;28;20066;-81
2021/08/18 05:19:36;;;;;;;1.42;0.55;;;15.10;99.90;;;;;;20331286;28;20035;-81
2021/08/18 05:29:37;;;;;;;2.15;0.73;;;15.10;99.90;;;;;;20400841;28;20042;-81
2021/08/18 05:39:38;;;;;;;2.80;0.40;;;15.10;99.90;;;;;;20343896;28;20037;-80
2021/08/18 05:49:39;;;;;;;1.88;0.60;;;15.10;99.90;;;;;;20328452;28;20578;-81
2021/08/18 05:59:40;;;;;;;1.08;0.47;;;15.20;99.90;;;;;;20377213;28;20036;-80
2021/08/18 06:09:42;;;;;;;2.83;1.20;;;15.30;99.90;;;;;;20322982;28;20147;-80
2021/08/18 06:19:43;;;;;;;1.27;0.70;;;15.30;99.90;;;;;;20333207;28;20054;-81
2021/08/18 06:29:44;;;;;;;7.78;2.20;;;15.50;99.90;;;;;;20320126;28;20046;-81
2021/08/18 06:39:45;;;;;;;4.82;1.83;;;15.60;99.90;;;;;;20358578;28;20043;-81
2021/08/18 06:49:46;;;;;;;8.02;2.00;;;15.60;99.90;;;;;;20383584;28;20065;-80
2021/08/18 06:59:47;;;;;;;5.55;2.20;;;15.80;99.90;;;;;;20328442;28;20036;-81
2021/08/18 07:09:49;;;;;;;3.17;1.35;;;16.00;99.90;;;;;;20365654;28;20153;-81
2021/08/18 07:19:50;;;;;;;4.05;1.30;;;16.20;99.90;;;;;;20348641;28;20048;-80
2021/08/18 07:29:53;;;;;;;2.97;1.50;;;16.30;99.90;;;;;;20370694;28;20667;-81
2021/08/18 07:39:55;;;;;;;5.45;1.48;;;16.50;99.90;;;;;;20446601;28;20099;-81
2021/08/18 07:49:56;;;;;;;3.88;1.35;;;16.80;99.90;;;;;;20333502;28;20357;-81
2021/08/18 07:59:57;;;;;;;2.45;0.90;;;16.90;99.90;;;;;;20422921;28;20040;-81
2021/08/18 08:09:58;;;;;;;3.35;1.48;;;17.00;99.90;;;;;;20414744;28;20673;-82
2021/08/18 08:19:59;;;;;;;3.90;1.67;;;17.20;99.90;;;;;;20401906;28;20051;-81
2021/08/18 08:30:00;;;;;;;3.75;1.58;;;17.40;99.90;;;;;;20388175;28;20045;-80
2021/08/18 08:40:02;;;;;;;4.80;1.55;;;17.50;99.90;;;;;;20338627;28;20084;-80
2021/08/18 08:50:09;;;;;;;5.55;1.20;;;17.60;99.90;;;;;;20333053;28;20585;-81
2021/08/18 09:00:11;;;;;;;3.53;1.57;;;17.70;99.90;;;;;;20359069;28;20048;-81
2021/08/18 09:10:14;;;;;;;3.20;1.40;;;17.70;99.90;;;;;;20364404;28;20245;-80
2021/08/18 09:20:18;;;;;;;5.22;2.22;;;17.90;99.90;;;;;;20352462;28;20132;-80
2021/08/18 09:30:27;;;;;;;6.18;1.40;;;18.00;99.90;;;;;;20351798;28;20059;-80
2021/08/18 09:40:35;;;;;;;3.92;1.65;;;17.90;99.90;;;;;;20366801;28;20052;-80
2021/08/18 09:50:53;;;;;;;5.20;2.40;;;17.80;99.90;;;;;;20323611;28;20082;-81
2021/08/18 10:00:56;;;;;;;6.80;2.38;;;17.60;99.90;;;;;;20379087;28;20053;-81
2021/08/18 10:10:57;;;;;;;4.28;2.05;;;17.60;99.90;;;;;;20354290;28;20056;-81
2021/08/18 10:21:03;;;;;;;4.82;1.88;;;17.50;99.90;;;;;;20280462;28;20050;-80
2021/08/18 10:31:04;;;;;;;8.05;2.67;;;17.70;99.90;;;;;;20343956;28;20054;-80
2021/08/18 10:41:05;;;;;;;5.80;2.28;;;18.00;99.90;;;;;;20388664;28;20122;-80
2021/08/18 10:51:06;;;;;;;7.57;2.65;;;18.40;99.90;;;;;;20361697;28;20681;-80
2021/08/18 11:01:42;;;;;;;6.20;2.53;;;18.40;99.90;;;;;;20398259;28;20053;-81
2021/08/18 11:11:43;;;;;;;4.25;1.80;;;18.50;99.90;;;;;;20390440;28;20049;-80
2021/08/18 11:21:44;;;;;;;7.05;1.92;;;18.90;99.90;;;;;;20380038;28;20428;-80
2021/08/18 11:31:49;;;;;;;3.88;1.80;;;19.20;99.90;;;;;;20381416;28;20047;-80
2021/08/18 11:41:50;;;;;;;4.15;2.03;;;19.30;99.90;;;;;;20426404;28;20050;-80
2021/08/18 11:51:51;;;;;;;5.55;2.42;;;19.10;99.90;;;;;;20434066;28;20039;-81
2021/08/18 12:01:54;;;;;;;3.92;0.90;;;19.20;99.90;;;;;;20358148;28;20050;-80
2021/08/18 12:12:12;;;;;;;2.30;1.27;;;19.60;99.90;;;;;;20429652;28;20036;-80
2021/08/18 12:22:39;;;;;;;1.77;0.77;;;19.90;99.90;;;;;;20358025;28;20054;-80
2021/08/18 12:32:41;;;;;;;2.77;0.87;;;20.10;99.90;;;;;;20288451;28;20044;-80
2021/08/18 12:42:44;;;;;;;4.95;1.20;;;20.20;99.90;;;;;;20330970;28;20373;-80
2021/08/18 12:52:45;;;;;;;2.72;1.13;;;20.10;99.90;;;;;;20329363;28;20041;-80
2021/08/18 13:02:47;;;;;;;3.63;1.35;;;19.80;99.90;;;;;;20333152;28;20062;-80
2021/08/18 13:12:48;;;;;;;3.05;1.15;;;19.70;99.90;;;;;;20361396;28;20042;-80
2021/08/18 13:22:49;;;;;;;3.63;1.17;;;19.60;99.90;;;;;;20335569;28;20058;-81
2021/08/18 13:32:50;;;;;;;4.97;1.40;;;19.30;99.90;;;;;;20433747;28;20041;-80
2021/08/18 13:42:51;;;;;;;5.10;2.70;;;18.80;99.90;;;;;;20407978;28;20049;-80
2021/08/18 13:52:53;;;;;;;9.05;1.48;;;18.90;99.90;;;;;;20361003;28;20033;-80
2021/08/18 14:02:54;;;;;;;4.70;1.30;;;19.30;99.90;;;;;;20412024;28;20067;-80
2021/08/18 14:12:55;;;;;;;2.53;0.75;;;19.40;99.90;;;;;;20375882;28;20039;-80
2021/08/18 14:22:57;;;;;;;2.58;0.95;;;19.10;99.90;;;;;;20392160;28;20048;-80
2021/08/18 14:33:00;;;;;;;4.20;1.27;;;19.00;99.90;;;;;;20377752;28;20042;-80
2021/08/18 14:43:02;;;;;;;3.28;1.08;;;18.90;99.90;;;;;;20375653;28;20055;-80
2021/08/18 14:53:06;;;;;;;8.18;2.28;;;18.70;99.90;;;;;;20377729;28;20055;-81
2021/08/18 15:03:07;;;;;;;3.78;1.67;;;18.30;99.90;;;;;;20344625;28;20046;-81
2021/08/18 15:13:08;;;;;;;3.15;0.80;;;18.10;99.90;;;;;;20390496;28;20051;-81
2021/08/18 15:23:12;;;;;;;2.33;0.70;;;18.30;99.90;;;;;;20326295;28;20051;-80
2021/08/18 15:33:14;;;;;;;1.67;0.60;;;18.50;99.90;;;;;;20390878;28;20118;-81
2021/08/18 15:43:15;;;;;;;1.95;0.60;;;18.20;99.90;;;;;;20379081;28;21510;-80
2021/08/18 15:53:16;;;;;;;2.20;0.65;;;18.50;99.90;;;;;;20354453;28;20484;-82
2021/08/18 16:03:18;;;;;;;1.50;0.50;;;18.50;99.90;;;;;;20352376;28;20052;-81
2021/08/18 16:13:19;;;;;;;2.13;0.80;;;18.50;99.90;;;;;;20363860;28;20131;-80
2021/08/18 16:23:20;;;;;;;2.35;1.20;;;18.50;99.90;;;;;;20357200;28;20069;-80
2021/08/18 16:33:21;;;;;;;3.22;0.85;;;18.40;99.90;;;;;;20359920;28;20137;-80
2021/08/18 16:43:22;;;;;;;3.33;1.20;;;18.30;99.90;;;;;;20396599;28;20082;-80
2021/08/18 16:53:23;;;;;;;4.38;1.10;;;18.20;99.90;;;;;;20421664;28;20042;-81
2021/08/18 17:03:24;;;;;;;4.18;1.48;;;18.00;99.90;;;;;;20449161;28;20410;-80
2021/08/18 17:13:26;;;;;;;3.65;1.23;;;18.00;99.90;;;;;;20480666;28;20035;-81
2021/08/18 17:23:27;;;;;;;4.65;1.15;;;17.90;99.90;;;;;;20395445;28;20057;-80
2021/08/18 17:33:28;;;;;;;3.72;1.05;;;17.80;99.90;;;;;;20432496;28;20050;-80
2021/08/18 17:43:29;;;;;;;8.25;0.90;;;17.70;99.90;;;;;;20425678;28;20508;-81
2021/08/18 17:53:30;;;;;;;3.17;0.80;;;17.70;99.90;;;;;;20375697;28;20050;-81
2021/08/18 18:03:32;;;;;;;5.03;1.23;;;17.70;99.90;;;;;;20368817;28;20384;-81
2021/08/18 18:13:33;;;;;;;3.42;1.58;;;17.80;99.90;;;;;;20379701;28;20385;-80
2021/08/18 18:23:35;;;;;;;3.75;1.23;;;17.70;99.90;;;;;;20355817;28;20597;-81
2021/08/18 18:33:36;;;;;;;4.40;2.13;;;17.70;99.90;;;;;;20374639;28;20102;-81
2021/08/18 18:43:38;;;;;;;4.65;1.40;;;17.70;99.90;;;;;;20388232;28;20044;-81
2021/08/18 18:53:39;;;;;;;5.57;2.10;;;17.70;99.90;;;;;;20415117;28;20394;-79
2021/08/18 19:03:42;;;;;;;5.93;2.85;;;17.60;99.90;;;;;;20367851;28;20048;-79
2021/08/18 19:13:43;;;;;;;5.57;2.00;;;17.60;99.90;;;;;;20364867;28;20155;-80
2021/08/18 19:23:44;;;;;;;4.78;1.90;;;17.50;99.90;;;;;;20428523;28;20057;-80
2021/08/18 19:33:46;;;;;;;5.80;2.38;;;17.40;99.90;;;;;;20410801;28;20526;-79
2021/08/18 19:43:48;;;;;;;4.85;1.80;;;17.40;99.90;;;;;;20386961;28;20062;-80
2021/08/18 19:53:49;;;;;;;3.33;1.63;;;17.30;99.90;;;;;;20327634;28;20501;-80
2021/08/18 20:03:50;;;;;;;8.90;2.45;;;17.10;99.90;;;;;;20389806;28;20059;-80
2021/08/18 20:13:51;;;;;;;5.18;2.15;;;17.20;99.90;;;;;;20311894;28;20039;-80
2021/08/18 20:23:52;;;;;;;3.08;1.45;;;17.10;99.90;;;;;;20345320;28;20549;-79
2021/08/18 20:33:53;;;;;;;4.85;1.73;;;17.20;99.90;;;;;;20328332;28;20469;-80
2021/08/18 20:43:54;;;;;;;4.95;1.60;;;17.10;99.90;;;;;;20362711;28;20057;-79
2021/08/18 20:53:55;;;;;;;2.80;1.42;;;17.10;99.90;;;;;;20394833;28;20389;-80
2021/08/18 21:03:57;;;;;;;3.65;1.48;;;17.00;99.90;;;;;;20392197;28;20392;-80
2021/08/18 21:13:58;;;;;;;3.97;1.10;;;17.10;99.90;;;;;;20445581;28;20503;-79
2021/08/18 21:23:59;;;;;;;2.92;1.17;;;17.00;99.90;;;;;;20400381;28;20154;-80
2021/08/18 21:34:00;;;;;;;3.70;1.65;;;17.00;99.90;;;;;;20365739;28;20510;-80
2021/08/18 21:44:01;;;;;;;3.72;1.50;;;17.00;99.90;;;;;;20433679;28;20093;-79
2021/08/18 21:54:02;;;;;;;3.65;1.15;;;17.00;99.90;;;;;;20401361;28;20134;-80
2021/08/18 22:04:04;;;;;;;5.35;1.55;;;17.00;99.90;;;;;;20397738;28;20036;-80
2021/08/18 22:14:05;;;;;;;4.95;1.52;;;16.90;99.90;;;;;;20437827;28;20510;-80
2021/08/18 22:24:06;;;;;;;3.58;0.90;;;16.90;99.90;;;;;;20366453;28;20062;-80
2021/08/18 22:34:07;;;;;;;3.15;1.20;;;16.90;99.90;;;;;;20431694;28;20141;-81
2021/08/18 22:44:09;;;;;;;3.70;1.65;;;16.60;99.90;;;;;;20366730;28;20428;-80
2021/08/18 22:54:10;;;;;;;4.00;1.70;;;16.50;99.90;;;;;;20353003;28;20048;-80
2021/08/18 23:04:11;;;;;;;5.43;2.47;;;16.50;99.90;;;;;;20452528;28;20173;-80
2021/08/18 23:14:12;;;;;;;4.40;1.88;;;16.40;99.90;;;;;;20389626;28;20046;-79
2021/08/18 23:24:13;;;;;;;5.70;2.38;;;16.50;99.90;;;;;;20364796;28;20066;-80
2021/08/18 23:34:14;;;;;;;6.70;2.25;;;16.40;99.90;;;;;;20387888;28;20056;-79
2021/08/18 23:44:16;;;;;;;5.38;1.88;;;16.30;99.90;;;;;;20405308;28;20147;-80
2021/08/18 23:54:17;;;;;;;5.10;2.13;;;16.20;99.90;;;;;;20427671;28;20081;-79
